createdAt,value
2022-11-07T00:00:20.710Z,100550.25
2022-11-07T00:02:46.906Z,100560.75
2022-11-07T00:05:13.052Z,100561.69
2022-11-07T00:07:39.198Z,100554.03
2022-11-07T00:10:05.306Z,100555.47
2022-11-07T00:12:31.434Z,100554.38
2022-11-07T00:14:57.564Z,100557.75
2022-11-07T00:17:23.705Z,100550.97
2022-11-07T00:19:49.855Z,100554.22
2022-11-07T00:22:15.986Z,100556.19
2022-11-07T00:24:42.108Z,100549.22
2022-11-07T00:27:08.731Z,100548.50
2022-11-07T00:29:34.885Z,100561.78
2022-11-07T00:32:01.045Z,100565.53
2022-11-07T00:34:27.174Z,100563.88
2022-11-07T00:36:53.327Z,100559.31
2022-11-07T00:39:19.445Z,100561.53
2022-11-07T00:41:45.563Z,100561.41
2022-11-07T00:44:11.700Z,100562.25
2022-11-07T00:46:37.847Z,100562.06
2022-11-07T00:49:03.969Z,100570.00
2022-11-07T00:51:30.127Z,100576.00
2022-11-07T00:53:56.252Z,100560.22
2022-11-07T00:56:22.364Z,100576.38
2022-11-07T00:58:48.506Z,100582.38
2022-11-07T01:01:14.673Z,100585.13
2022-11-07T01:03:40.848Z,100584.91
2022-11-07T01:06:06.984Z,100585.78
2022-11-07T01:08:33.148Z,100583.09
2022-11-07T01:10:59.279Z,100594.91
2022-11-07T01:13:25.398Z,100600.84
2022-11-07T01:15:51.553Z,100595.78
2022-11-07T01:18:17.672Z,100590.69
2022-11-07T01:20:43.804Z,100585.50
2022-11-07T01:23:09.953Z,100586.66
2022-11-07T01:25:36.060Z,100591.09
2022-11-07T01:28:02.293Z,100588.69
2022-11-07T01:30:28.466Z,100589.88
2022-11-07T01:32:54.600Z,100585.31
2022-11-07T01:35:20.722Z,100587.44
2022-11-07T01:37:46.841Z,100584.03
2022-11-07T01:40:12.965Z,100584.97
2022-11-07T01:42:39.069Z,100591.31
2022-11-07T01:45:05.220Z,100590.75
2022-11-07T01:47:31.348Z,100598.50
2022-11-07T01:49:57.475Z,100595.75
2022-11-07T01:52:23.623Z,100600.84
2022-11-07T01:54:49.742Z,100587.69
2022-11-07T01:57:15.870Z,100594.25
2022-11-07T01:59:42.030Z,100596.53
2022-11-07T02:02:08.285Z,100601.72
2022-11-07T02:04:34.457Z,100593.03
2022-11-07T02:07:00.622Z,100597.25
2022-11-07T02:09:27.298Z,100595.16
2022-11-07T02:11:53.441Z,100602.06
2022-11-07T02:14:19.565Z,100600.34
2022-11-07T02:16:45.675Z,100595.66
2022-11-07T02:19:11.814Z,100594.47
2022-11-07T02:21:37.956Z,100603.31
2022-11-07T02:24:04.085Z,100589.03
2022-11-07T02:26:30.207Z,100585.22
2022-11-07T02:28:56.331Z,100592.22
2022-11-07T02:31:22.508Z,100592.31
2022-11-07T02:33:48.642Z,100586.13
2022-11-07T02:36:14.779Z,100582.66
2022-11-07T02:38:40.881Z,100584.56
2022-11-07T02:41:07.005Z,100581.25
2022-11-07T02:43:33.153Z,100583.16
2022-11-07T02:45:59.279Z,100586.72
2022-11-07T02:48:25.386Z,100591.16
2022-11-07T02:50:51.537Z,100589.41
2022-11-07T02:53:17.852Z,100589.28
2022-11-07T02:55:44.222Z,100583.81
2022-11-07T02:58:10.383Z,100582.03
2022-11-07T03:00:36.496Z,100573.56
2022-11-07T03:03:02.627Z,100567.78
2022-11-07T03:05:28.780Z,100578.78
2022-11-07T03:07:54.901Z,100576.91
2022-11-07T03:10:21.056Z,100580.97
2022-11-07T03:12:47.168Z,100575.38
2022-11-07T03:15:13.265Z,100586.28
2022-11-07T03:17:39.397Z,100582.38
2022-11-07T03:20:05.529Z,100587.75
2022-11-07T03:22:31.648Z,100592.84
2022-11-07T03:24:57.775Z,100593.56
2022-11-07T03:27:23.945Z,100596.91
2022-11-07T03:29:50.049Z,100606.13
2022-11-07T03:32:16.139Z,100589.75
2022-11-07T03:34:42.268Z,100611.78
2022-11-07T03:37:08.378Z,100613.22
2022-11-07T03:39:34.503Z,100613.63
2022-11-07T03:42:00.620Z,100610.72
2022-11-07T03:44:26.745Z,100614.75
2022-11-07T03:46:52.854Z,100609.31
2022-11-07T03:49:18.972Z,100602.19
2022-11-07T03:51:45.090Z,100601.09
2022-11-07T03:54:11.246Z,100619.25
2022-11-07T03:56:37.340Z,100614.84
2022-11-07T03:59:03.461Z,100618.31
2022-11-07T04:01:29.697Z,100625.19
2022-11-07T04:03:56.491Z,100632.16
2022-11-07T04:06:22.714Z,100638.03
2022-11-07T04:08:48.828Z,100637.84
2022-11-07T04:11:14.941Z,100628.31
2022-11-07T04:13:41.086Z,100632.63
2022-11-07T04:16:07.231Z,100641.19
2022-11-07T04:18:33.370Z,100643.66
2022-11-07T04:20:59.485Z,100649.50
2022-11-07T04:23:25.618Z,100650.91
2022-11-07T04:25:51.759Z,100652.22
2022-11-07T04:28:18.007Z,100654.72
2022-11-07T04:30:44.205Z,100641.53
2022-11-07T04:33:10.331Z,100645.75
2022-11-07T04:35:36.478Z,100644.63
2022-11-07T04:38:02.615Z,100642.09
2022-11-07T04:40:28.753Z,100639.41
2022-11-07T04:42:54.887Z,100639.69
2022-11-07T04:45:21.027Z,100637.59
2022-11-07T04:47:47.871Z,100640.38
2022-11-07T04:50:13.985Z,100644.13
2022-11-07T04:52:40.190Z,100643.47
2022-11-07T04:55:06.350Z,100641.31
2022-11-07T04:57:32.542Z,100641.22
2022-11-07T04:59:58.667Z,100633.78
2022-11-07T05:02:24.947Z,100634.16
2022-11-07T05:04:51.360Z,100633.34
2022-11-07T05:07:17.472Z,100630.41
2022-11-07T05:09:43.625Z,100629.91
2022-11-07T05:12:09.796Z,100636.13
2022-11-07T05:14:35.953Z,100624.25
2022-11-07T05:17:02.101Z,100627.66
2022-11-07T05:19:28.245Z,100629.53
2022-11-07T05:21:54.397Z,100633.47
2022-11-07T05:24:20.546Z,100632.69
2022-11-07T05:26:46.673Z,100633.75
2022-11-07T05:29:12.857Z,100633.91
2022-11-07T05:31:39.079Z,100643.09
2022-11-07T05:34:05.206Z,100641.53
2022-11-07T05:36:31.366Z,100637.63
2022-11-07T05:38:57.501Z,100642.84
2022-11-07T05:41:23.627Z,100644.28
2022-11-07T05:43:49.748Z,100648.59
2022-11-07T05:46:15.914Z,100649.50
2022-11-07T05:48:42.051Z,100655.31
2022-11-07T05:51:08.203Z,100655.44
2022-11-07T05:53:34.651Z,100655.31
2022-11-07T05:56:02.154Z,100655.31
2022-11-07T05:58:28.294Z,100656.13
2022-11-07T06:00:54.462Z,100656.25
2022-11-07T06:03:20.959Z,100657.19
2022-11-07T06:05:47.344Z,100665.13
2022-11-07T06:08:13.520Z,100658.94
2022-11-07T06:10:39.687Z,100662.03
2022-11-07T06:13:05.812Z,100656.75
2022-11-07T06:15:31.953Z,100658.31
2022-11-07T06:17:58.077Z,100657.13
2022-11-07T06:20:24.258Z,100656.22
2022-11-07T06:22:50.429Z,100657.00
2022-11-07T06:25:16.631Z,100662.84
2022-11-07T06:27:42.760Z,100662.63
2022-11-07T06:30:08.906Z,100665.16
2022-11-07T06:32:35.030Z,100659.81
2022-11-07T06:35:01.272Z,100667.38
2022-11-07T06:37:27.784Z,100665.66
2022-11-07T06:39:53.904Z,100669.06
2022-11-07T06:42:20.097Z,100660.34
2022-11-07T06:44:46.282Z,100663.44
2022-11-07T06:47:12.443Z,100664.69
2022-11-07T06:49:38.586Z,100663.44
2022-11-07T06:52:05.854Z,100667.50
2022-11-07T06:54:32.038Z,100674.25
2022-11-07T06:56:58.147Z,100670.66
2022-11-07T06:59:24.336Z,100680.94
2022-11-07T07:01:50.498Z,100679.44
2022-11-07T07:04:16.663Z,100688.19
2022-11-07T07:06:42.853Z,100684.44
2022-11-07T07:09:09.078Z,100693.75
2022-11-07T07:11:35.278Z,100692.84
2022-11-07T07:14:02.461Z,100680.69
2022-11-07T07:16:28.929Z,100686.81
2022-11-07T07:18:55.086Z,100689.94
2022-11-07T07:21:21.226Z,100691.84
2022-11-07T07:23:47.389Z,100685.47
2022-11-07T07:26:13.509Z,100690.50
2022-11-07T07:28:39.701Z,100686.50
2022-11-07T07:31:05.849Z,100687.41
2022-11-07T07:33:31.993Z,100689.31
2022-11-07T07:35:58.149Z,100688.63
2022-11-07T07:38:24.314Z,100691.19
2022-11-07T07:40:50.460Z,100700.78
2022-11-07T07:43:16.919Z,100701.34
2022-11-07T07:45:43.227Z,100699.25
2022-11-07T07:48:09.410Z,100698.47
2022-11-07T07:50:35.558Z,100703.50
2022-11-07T07:53:07.766Z,100713.41
2022-11-07T07:55:35.396Z,100709.19
2022-11-07T07:58:01.574Z,100709.97
2022-11-07T08:00:27.789Z,100699.88
2022-11-07T08:02:54.012Z,100702.72
2022-11-07T08:05:20.205Z,100707.34
2022-11-07T08:07:49.077Z,100713.34
2022-11-07T08:10:40.380Z,100707.81
2022-11-07T08:13:01.363Z,100711.59
2022-11-07T08:15:27.544Z,100715.13
2022-11-07T08:17:53.687Z,100712.97
2022-11-07T08:20:19.974Z,100722.13
2022-11-07T08:22:46.155Z,100714.97
2022-11-07T08:25:12.271Z,100715.81
2022-11-07T08:27:38.406Z,100715.81
2022-11-07T08:30:04.536Z,100705.50
2022-11-07T08:32:30.703Z,100712.81
2022-11-07T08:34:56.878Z,100711.97
2022-11-07T08:37:23.035Z,100713.97
2022-11-07T08:39:49.229Z,100718.28
2022-11-07T08:42:15.383Z,100722.03
2022-11-07T08:44:41.494Z,100713.88
2022-11-07T08:47:08.757Z,100712.78
2022-11-07T08:49:34.996Z,100721.59
2022-11-07T08:52:01.114Z,100722.47
2022-11-07T08:54:27.273Z,100716.25
2022-11-07T08:56:53.435Z,100724.09
2022-11-07T08:59:19.567Z,100729.25
2022-11-07T09:02:14.414Z,100726.84
2022-11-07T09:04:31.870Z,100732.09
2022-11-07T09:06:58.050Z,100727.47
2022-11-07T09:09:24.312Z,100736.59
2022-11-07T09:11:50.467Z,100733.03
2022-11-07T09:14:16.743Z,100732.25
2022-11-07T09:16:42.875Z,100732.69
2022-11-07T09:19:09.038Z,100720.19
2022-11-07T09:21:35.184Z,100723.00
2022-11-07T09:24:01.368Z,100725.97
2022-11-07T09:26:27.850Z,100730.97
2022-11-07T09:28:57.320Z,100737.59
2022-11-07T09:31:27.033Z,100732.69
2022-11-07T09:33:53.266Z,100732.09
2022-11-07T09:36:19.394Z,100734.63
2022-11-07T09:38:45.577Z,100742.06
2022-11-07T09:41:11.711Z,100740.78
2022-11-07T09:43:38.896Z,100739.75
2022-11-07T09:46:05.076Z,100746.69
2022-11-07T09:48:31.206Z,100745.69
2022-11-07T09:50:57.624Z,100739.88
2022-11-07T09:53:23.794Z,100742.06
2022-11-07T09:55:49.985Z,100739.38
2022-11-07T09:58:16.110Z,100728.91
2022-11-07T10:00:42.268Z,100740.00
2022-11-07T10:03:08.438Z,100743.09
2022-11-07T10:05:34.588Z,100745.69
2022-11-07T10:08:00.717Z,100744.53
2022-11-07T10:10:26.837Z,100737.41
2022-11-07T10:12:52.982Z,100737.09
2022-11-07T10:15:19.126Z,100733.53
2022-11-07T10:17:45.233Z,100740.91
2022-11-07T10:20:11.387Z,100733.66
2022-11-07T10:22:37.572Z,100748.63
2022-11-07T10:25:03.765Z,100748.25
2022-11-07T10:27:32.798Z,100746.88
2022-11-07T10:29:59.115Z,100752.31
2022-11-07T10:32:25.296Z,100742.16
2022-11-07T10:34:54.334Z,100745.38
2022-11-07T10:37:20.970Z,100747.16
2022-11-07T10:39:47.163Z,100751.75
2022-11-07T10:42:13.281Z,100747.31
2022-11-07T10:44:39.429Z,100750.31
2022-11-07T10:47:05.596Z,100746.88
2022-11-07T10:49:31.758Z,100741.63
2022-11-07T10:51:57.919Z,100734.94
2022-11-07T10:54:24.078Z,100740.09
2022-11-07T10:56:50.236Z,100737.69
2022-11-07T10:59:16.374Z,100745.78
2022-11-07T11:01:42.609Z,100740.25
2022-11-07T11:04:08.798Z,100736.63
2022-11-07T11:06:34.935Z,100741.91
2022-11-07T11:09:01.085Z,100732.91
2022-11-07T11:11:27.240Z,100739.34
2022-11-07T11:13:53.379Z,100740.88
2022-11-07T11:16:19.563Z,100740.53
2022-11-07T11:18:45.750Z,100733.31
2022-11-07T11:21:11.880Z,100733.19
2022-11-07T11:23:38.026Z,100730.13
2022-11-07T11:26:04.152Z,100726.66
2022-11-07T11:28:30.314Z,100726.06
2022-11-07T11:31:02.204Z,100731.91
2022-11-07T11:33:28.329Z,100720.53
2022-11-07T11:35:54.471Z,100715.00
2022-11-07T11:38:20.629Z,100718.97
2022-11-07T11:40:49.857Z,100714.81
2022-11-07T11:43:16.153Z,100720.09
2022-11-07T11:45:42.450Z,100712.59
2022-11-07T11:48:08.622Z,100707.16
2022-11-07T11:50:40.792Z,100701.72
2022-11-07T11:53:06.975Z,100698.38
2022-11-07T11:55:33.118Z,100692.53
2022-11-07T11:57:59.370Z,100694.34
2022-11-07T12:00:25.522Z,100688.03
2022-11-07T12:02:51.633Z,100689.03
2022-11-07T12:05:17.772Z,100688.94
2022-11-07T12:07:43.883Z,100682.19
2022-11-07T12:10:10.025Z,100671.47
2022-11-07T12:12:36.158Z,100679.03
2022-11-07T12:15:02.338Z,100672.13
2022-11-07T12:17:28.489Z,100673.91
2022-11-07T12:19:54.647Z,100685.63
2022-11-07T12:22:20.828Z,100678.69
2022-11-07T12:24:46.957Z,100690.00
2022-11-07T12:27:13.089Z,100686.06
2022-11-07T12:29:39.289Z,100686.38
2022-11-07T12:32:05.600Z,100688.38
2022-11-07T12:34:31.758Z,100677.88
2022-11-07T12:36:57.953Z,100675.13
2022-11-07T12:39:24.123Z,100676.03
2022-11-07T12:41:50.263Z,100668.53
2022-11-07T12:44:16.418Z,100673.00
2022-11-07T12:46:42.551Z,100671.94
2022-11-07T12:49:08.707Z,100674.16
2022-11-07T12:51:34.832Z,100681.56
2022-11-07T12:54:01.002Z,100675.59
2022-11-07T12:56:27.136Z,100664.00
2022-11-07T12:58:53.280Z,100666.66
2022-11-07T13:01:19.513Z,100659.53
2022-11-07T13:03:45.732Z,100653.53
2022-11-07T13:06:11.893Z,100654.00
2022-11-07T13:08:38.037Z,100653.25
2022-11-07T13:11:04.198Z,100640.00
2022-11-07T13:13:30.342Z,100648.19
2022-11-07T13:18:42.725Z,100651.06
2022-11-07T13:21:08.871Z,100654.06
2022-11-07T13:23:35.059Z,100656.44
2022-11-07T13:26:06.985Z,100656.28
2022-11-07T13:28:41.205Z,100652.88
2022-11-07T13:31:08.039Z,100660.75
2022-11-07T13:33:34.258Z,100660.63
2022-11-07T13:36:00.412Z,100667.00
2022-11-07T13:38:26.584Z,100657.91
2022-11-07T13:40:52.722Z,100660.06
2022-11-07T13:43:19.140Z,100657.06
2022-11-07T13:45:45.552Z,100661.19
2022-11-07T13:48:11.827Z,100669.56
2022-11-07T13:50:37.967Z,100658.41
2022-11-07T13:53:04.148Z,100660.00
2022-11-07T13:55:30.314Z,100663.28
2022-11-07T13:57:56.444Z,100672.19
2022-11-07T14:00:22.673Z,100662.53
2022-11-07T14:02:48.936Z,100665.25
2022-11-07T14:05:16.722Z,100669.09
2022-11-07T14:07:43.560Z,100667.69
2022-11-07T14:10:09.763Z,100665.63
2022-11-07T14:12:36.262Z,100658.97
2022-11-07T14:15:02.388Z,100670.59
2022-11-07T14:17:28.535Z,100666.66
2022-11-07T14:19:54.680Z,100663.66
2022-11-07T14:22:20.877Z,100669.75
2022-11-07T14:24:47.050Z,100675.38
2022-11-07T14:27:13.189Z,100679.56
2022-11-07T14:29:39.377Z,100678.19
2022-11-07T14:32:05.561Z,100675.56
2022-11-07T14:34:31.700Z,100678.28
2022-11-07T14:36:57.857Z,100689.03
2022-11-07T14:39:23.977Z,100676.75
2022-11-07T14:41:50.296Z,100682.28
2022-11-07T14:44:16.652Z,100680.78
2022-11-07T14:46:42.775Z,100674.03
2022-11-07T14:49:08.945Z,100658.75
2022-11-07T14:51:35.084Z,100656.88
2022-11-07T14:54:01.244Z,100658.09
2022-11-07T14:56:27.380Z,100660.16
2022-11-07T14:58:53.522Z,100667.38
2022-11-07T15:01:19.699Z,100669.91
2022-11-07T15:03:45.853Z,100668.13
2022-11-07T15:06:11.994Z,100662.50
2022-11-07T15:08:39.205Z,100663.88
2022-11-07T15:11:05.349Z,100668.75
2022-11-07T15:13:31.547Z,100670.69
2022-11-07T15:15:57.708Z,100666.22
2022-11-07T15:18:23.891Z,100663.88
2022-11-07T15:20:50.085Z,100668.69
2022-11-07T15:23:16.214Z,100667.88
2022-11-07T15:25:42.406Z,100665.44
2022-11-07T15:28:08.582Z,100664.72
2022-11-07T15:30:34.740Z,100667.09
2022-11-07T15:33:00.939Z,100662.63
2022-11-07T15:35:43.471Z,100664.66
2022-11-07T15:38:10.830Z,100664.06
2022-11-07T15:40:37.012Z,100668.34
2022-11-07T15:43:03.148Z,100666.88
2022-11-07T15:45:29.277Z,100672.03
2022-11-07T15:47:55.463Z,100672.78
2022-11-07T15:50:21.622Z,100673.03
2022-11-07T15:52:47.837Z,100674.06
2022-11-07T15:55:13.953Z,100671.53
2022-11-07T15:57:40.097Z,100674.81
2022-11-07T16:00:06.231Z,100684.38
2022-11-07T16:02:32.517Z,100676.00
2022-11-07T16:04:58.724Z,100674.47
2022-11-07T16:07:24.878Z,100671.09
2022-11-07T16:09:54.322Z,100669.31
2022-11-07T16:12:20.471Z,100677.38
2022-11-07T16:14:46.653Z,100661.19
2022-11-07T16:17:23.104Z,100672.72
2022-11-07T16:19:49.225Z,100678.81
2022-11-07T16:22:15.396Z,100679.72
2022-11-07T16:24:47.400Z,100683.72
2022-11-07T16:27:13.565Z,100683.06
2022-11-07T16:29:39.692Z,100680.69
2022-11-07T16:32:05.850Z,100682.53
2022-11-07T16:34:31.990Z,100680.09
2022-11-07T16:36:58.158Z,100692.72
2022-11-07T16:39:24.302Z,100686.88
2022-11-07T16:41:50.446Z,100688.00
2022-11-07T16:44:20.407Z,100680.28
2022-11-07T16:46:49.380Z,100683.06
2022-11-07T16:49:15.547Z,100685.19
2022-11-07T16:51:41.710Z,100682.81
2022-11-07T16:54:07.854Z,100686.53
2022-11-07T16:56:34.054Z,100689.25
2022-11-07T16:59:00.192Z,100682.50
2022-11-07T17:01:26.464Z,100682.63
2022-11-07T17:03:52.905Z,100678.94
2022-11-07T17:06:19.048Z,100680.88
2022-11-07T17:08:45.252Z,100680.88
2022-11-07T17:11:11.382Z,100686.78
2022-11-07T17:13:37.536Z,100679.63
2022-11-07T17:16:03.695Z,100684.94
2022-11-07T17:18:29.837Z,100681.91
2022-11-07T17:20:55.999Z,100686.53
2022-11-07T17:23:29.740Z,100690.06
2022-11-07T17:25:56.279Z,100690.84
2022-11-07T17:28:22.427Z,100694.31
2022-11-07T17:30:48.754Z,100691.84
2022-11-07T17:33:14.936Z,100681.38
2022-11-07T17:35:41.090Z,100692.00
2022-11-07T17:38:07.226Z,100692.00
2022-11-07T17:40:33.388Z,100693.09
2022-11-07T17:42:59.539Z,100694.97
2022-11-07T17:45:25.775Z,100701.13
2022-11-07T17:47:51.921Z,100696.03
2022-11-07T17:50:18.065Z,100690.88
2022-11-07T17:52:44.269Z,100697.97
2022-11-07T17:55:10.428Z,100699.84
2022-11-07T17:57:43.885Z,100698.31
2022-11-07T18:00:10.097Z,100694.19
2022-11-07T18:02:36.467Z,100696.03
2022-11-07T18:05:02.681Z,100694.31
2022-11-07T18:07:28.858Z,100694.34
2022-11-07T18:09:56.266Z,100690.06
2022-11-07T18:12:22.412Z,100685.81
2022-11-07T18:14:48.579Z,100686.91
2022-11-07T18:17:14.717Z,100687.91
2022-11-07T18:19:40.901Z,100694.16
2022-11-07T18:22:07.050Z,100693.31
2022-11-07T18:24:33.204Z,100695.06
2022-11-07T18:26:59.356Z,100686.47
2022-11-07T18:29:25.491Z,100697.78
2022-11-07T18:31:51.675Z,100696.94
2022-11-07T18:34:17.917Z,100691.72
2022-11-07T18:36:44.159Z,100695.25
2022-11-07T18:39:10.308Z,100691.81
2022-11-07T18:41:36.512Z,100687.38
2022-11-07T18:44:05.651Z,100692.78
2022-11-07T18:46:31.858Z,100689.41
2022-11-07T18:51:48.336Z,100693.19
2022-11-07T18:54:14.529Z,100680.13
2022-11-07T18:56:40.809Z,100675.94
2022-11-07T18:59:06.983Z,100678.72
2022-11-07T19:01:33.423Z,100682.41
2022-11-07T19:04:01.594Z,100679.97
2022-11-07T19:06:27.736Z,100687.19
2022-11-07T19:08:53.905Z,100689.28
2022-11-07T19:11:20.088Z,100685.28
2022-11-07T19:13:46.218Z,100681.50
2022-11-07T19:16:12.430Z,100676.75
2022-11-07T19:18:38.552Z,100670.41
2022-11-07T19:21:06.865Z,100674.25
2022-11-07T19:23:33.062Z,100669.47
2022-11-07T19:26:00.377Z,100674.38
2022-11-07T19:28:26.502Z,100672.09
2022-11-07T19:30:52.668Z,100669.06
2022-11-07T19:33:19.248Z,100674.78
2022-11-07T19:35:45.612Z,100672.53
2022-11-07T19:38:11.802Z,100678.09
2022-11-07T19:40:38.039Z,100676.81
2022-11-07T19:43:04.204Z,100668.28
2022-11-07T19:45:30.374Z,100659.06
2022-11-07T19:47:56.980Z,100656.59
2022-11-07T19:50:23.137Z,100670.75
2022-11-07T19:52:49.303Z,100672.66
2022-11-07T19:55:15.436Z,100678.09
2022-11-07T19:57:41.601Z,100677.50
2022-11-07T20:00:07.797Z,100689.06
2022-11-07T20:02:37.518Z,100679.81
2022-11-07T20:05:06.318Z,100679.16
2022-11-07T20:07:32.471Z,100682.88
2022-11-07T20:09:58.595Z,100681.47
2022-11-07T20:12:24.759Z,100687.56
2022-11-07T20:14:50.921Z,100687.78
2022-11-07T20:17:17.049Z,100687.13
2022-11-07T20:19:43.183Z,100690.00
2022-11-07T20:22:09.402Z,100696.31
2022-11-07T20:24:35.563Z,100699.19
2022-11-07T20:27:01.735Z,100693.38
2022-11-07T20:29:27.888Z,100695.31
2022-11-07T20:31:53.996Z,100696.41
2022-11-07T20:37:10.287Z,100692.34
2022-11-07T20:39:36.447Z,100688.06
2022-11-07T20:42:02.553Z,100693.22
2022-11-07T20:44:28.715Z,100695.88
2022-11-07T20:46:54.908Z,100699.22
2022-11-07T20:49:21.223Z,100696.63
2022-11-07T20:51:47.380Z,100700.09
2022-11-07T20:54:13.515Z,100701.84
2022-11-07T20:56:39.673Z,100706.38
2022-11-07T20:59:05.782Z,100707.41
2022-11-07T21:01:32.108Z,100710.97
2022-11-07T21:03:58.365Z,100718.88
2022-11-07T21:06:24.541Z,100720.59
2022-11-07T21:08:50.709Z,100710.09
2022-11-07T21:11:16.895Z,100715.03
2022-11-07T21:13:46.505Z,100719.22
2022-11-07T21:16:17.531Z,100713.88
2022-11-07T21:18:43.682Z,100714.72
2022-11-07T21:21:09.806Z,100714.00
2022-11-07T21:23:35.963Z,100708.09
2022-11-07T21:26:02.114Z,100698.69
2022-11-07T21:28:28.254Z,100696.34
2022-11-07T21:30:54.393Z,100697.41
2022-11-07T21:33:22.530Z,100702.75
2022-11-07T21:35:48.751Z,100705.00
2022-11-07T21:38:14.873Z,100701.63
2022-11-07T21:40:40.997Z,100701.97
2022-11-07T21:43:07.138Z,100703.06
2022-11-07T21:45:33.296Z,100691.78
2022-11-07T21:47:59.439Z,100686.69
2022-11-07T21:53:11.690Z,100683.31
2022-11-07T21:55:37.909Z,100679.06
2022-11-07T21:58:04.028Z,100674.75
2022-11-07T22:00:35.501Z,100668.69
2022-11-07T22:03:02.572Z,100672.09
2022-11-07T22:05:28.713Z,100675.50
2022-11-07T22:07:54.831Z,100669.25
2022-11-07T22:10:20.953Z,100670.28
2022-11-07T22:12:47.091Z,100665.00
2022-11-07T22:15:13.240Z,100657.16
2022-11-07T22:17:39.383Z,100647.72
2022-11-07T22:20:05.545Z,100646.06
2022-11-07T22:22:31.690Z,100651.28
2022-11-07T22:24:57.809Z,100663.44
2022-11-07T22:27:23.952Z,100654.00
2022-11-07T22:29:50.086Z,100654.00
2022-11-07T22:32:16.247Z,100646.25
2022-11-07T22:34:42.380Z,100643.72
2022-11-07T22:37:08.503Z,100645.56
2022-11-07T22:39:34.636Z,100644.91
2022-11-07T22:42:00.750Z,100650.06
2022-11-07T22:44:26.882Z,100647.69
2022-11-07T22:46:53.020Z,100639.25
2022-11-07T22:49:19.138Z,100638.47
2022-11-07T22:51:45.293Z,100642.94
2022-11-07T22:54:11.452Z,100642.28
2022-11-07T22:56:37.618Z,100635.41
2022-11-07T22:59:03.760Z,100627.78
2022-11-07T23:01:29.959Z,100633.22
2022-11-07T23:03:56.199Z,100629.94
2022-11-07T23:06:22.350Z,100630.97
2022-11-07T23:08:48.529Z,100631.25
2022-11-07T23:11:44.745Z,100623.59
2022-11-07T23:14:00.855Z,100634.00
2022-11-07T23:16:32.130Z,100628.06
2022-11-07T23:18:58.744Z,100627.34
2022-11-07T23:21:24.884Z,100625.75
2022-11-07T23:23:51.037Z,100617.84
2022-11-07T23:26:17.186Z,100624.75
2022-11-07T23:28:43.316Z,100638.81
2022-11-07T23:31:09.424Z,100629.47
2022-11-07T23:33:35.588Z,100627.00
2022-11-07T23:36:01.717Z,100622.03
2022-11-07T23:38:27.879Z,100617.78
2022-11-07T23:40:54.026Z,100617.94
2022-11-07T23:43:20.182Z,100619.00
2022-11-07T23:45:46.334Z,100621.84
2022-11-07T23:48:12.467Z,100569.25
2022-11-07T23:50:38.602Z,100606.72
2022-11-07T23:53:04.729Z,100611.19
2022-11-07T23:55:30.891Z,100608.53
2022-11-07T23:57:57.038Z,100602.53
